createdAt,value
2022-12-08T00:02:08.949Z,2.81
2022-12-08T00:04:55.313Z,2.86
2022-12-08T00:07:40.065Z,2.89
2022-12-08T00:10:19.160Z,2.95
2022-12-08T00:12:53.442Z,2.98
2022-12-08T00:15:19.754Z,3.07
2022-12-08T00:17:46.017Z,3.09
2022-12-08T00:20:12.369Z,3.26
2022-12-08T00:22:38.705Z,3.29
2022-12-08T00:25:05.881Z,3.32
2022-12-08T00:27:32.310Z,3.35
2022-12-08T00:29:58.612Z,3.46
2022-12-08T00:32:24.925Z,3.41
2022-12-08T00:34:51.221Z,3.41
2022-12-08T00:37:17.502Z,3.42
2022-12-08T00:39:43.796Z,3.42
2022-12-08T00:42:13.140Z,3.41
2022-12-08T00:44:44.726Z,3.51
2022-12-08T00:47:12.680Z,3.50
2022-12-08T00:49:39.045Z,3.47
2022-12-08T00:52:05.730Z,3.46
2022-12-08T00:54:32.225Z,3.50
2022-12-08T00:56:58.549Z,3.53
2022-12-08T00:59:24.955Z,3.57
2022-12-08T01:01:51.268Z,3.56
2022-12-08T01:04:19.539Z,3.51
2022-12-08T01:06:46.401Z,3.53
2022-12-08T01:09:14.741Z,3.55
2022-12-08T01:11:41.553Z,3.50
2022-12-08T01:14:07.985Z,3.50
2022-12-08T01:16:36.000Z,3.54
2022-12-08T01:19:02.929Z,3.66
2022-12-08T01:21:29.645Z,3.60
2022-12-08T01:23:57.883Z,3.56
2022-12-08T01:26:24.210Z,3.53
2022-12-08T01:28:50.642Z,3.55
2022-12-08T01:31:19.555Z,3.53
2022-12-08T01:33:46.683Z,3.52
2022-12-08T01:36:19.260Z,3.50
2022-12-08T01:38:45.649Z,3.51
2022-12-08T01:41:22.014Z,3.50
2022-12-08T01:44:08.227Z,3.51
2022-12-08T01:46:37.344Z,3.54
2022-12-08T01:49:10.806Z,3.51
2022-12-08T01:51:44.571Z,3.46
2022-12-08T01:54:12.495Z,3.41
2022-12-08T01:57:04.877Z,3.58
2022-12-08T01:59:36.164Z,3.37
2022-12-08T02:02:02.510Z,3.15
2022-12-08T02:04:28.830Z,2.87
2022-12-08T02:06:55.464Z,2.59
2022-12-08T02:09:22.116Z,2.36
2022-12-08T02:11:50.293Z,2.15
2022-12-08T02:14:16.731Z,1.98
2022-12-08T02:16:56.221Z,1.78
2022-12-08T02:19:40.822Z,1.63
2022-12-08T02:22:12.363Z,1.51
2022-12-08T02:24:46.175Z,1.40
2022-12-08T02:27:40.826Z,1.52
2022-12-08T02:30:18.997Z,1.46
2022-12-08T02:33:06.588Z,1.39
2022-12-08T02:35:43.155Z,1.38
2022-12-08T02:38:37.077Z,1.35
2022-12-08T02:41:23.346Z,1.36
2022-12-08T02:44:18.192Z,1.41
2022-12-08T02:46:52.526Z,1.47
2022-12-08T02:49:18.801Z,1.56
2022-12-08T02:51:45.140Z,1.60
2022-12-08T02:54:12.969Z,1.63
2022-12-08T02:57:11.756Z,1.64
2022-12-08T03:00:19.529Z,1.66
2022-12-08T03:03:00.695Z,1.67
2022-12-08T03:05:32.941Z,1.69
2022-12-08T03:08:19.993Z,1.68
2022-12-08T03:10:46.259Z,1.73
2022-12-08T03:13:32.288Z,1.73
2022-12-08T03:16:00.154Z,1.81
2022-12-08T03:18:31.796Z,1.78
2022-12-08T03:20:59.236Z,1.79
2022-12-08T03:23:26.516Z,1.80
2022-12-08T03:26:08.449Z,1.77
2022-12-08T03:28:34.938Z,1.73
2022-12-08T03:31:05.711Z,1.68
2022-12-08T03:33:37.385Z,1.74
2022-12-08T03:36:07.032Z,1.73
2022-12-08T03:38:45.593Z,1.73
2022-12-08T03:41:18.247Z,1.69
2022-12-08T03:44:04.958Z,1.66
2022-12-08T03:48:57.187Z,1.55
2022-12-08T03:51:24.294Z,1.50
2022-12-08T03:53:50.813Z,1.51
2022-12-08T03:56:26.244Z,1.48
2022-12-08T03:58:53.670Z,1.50
2022-12-08T04:01:20.425Z,1.63
2022-12-08T04:03:46.947Z,1.71
2022-12-08T04:06:13.371Z,1.78
2022-12-08T04:08:40.021Z,1.89
2022-12-08T04:11:06.596Z,1.95
2022-12-08T04:13:34.941Z,2.04
2022-12-08T04:16:01.468Z,2.10
2022-12-08T04:18:27.857Z,2.13
2022-12-08T04:20:56.328Z,2.15
2022-12-08T04:23:22.901Z,2.23
2022-12-08T04:25:50.740Z,2.23
2022-12-08T04:28:17.342Z,2.26
2022-12-08T04:30:43.942Z,2.32
2022-12-08T04:33:10.650Z,2.30
2022-12-08T04:35:36.933Z,2.31
2022-12-08T04:38:03.290Z,2.30
2022-12-08T04:40:29.566Z,2.26
2022-12-08T04:42:55.891Z,2.16
2022-12-08T04:45:22.256Z,2.18
2022-12-08T04:47:48.649Z,2.33
2022-12-08T04:50:14.999Z,2.30
2022-12-08T04:52:41.334Z,2.28
2022-12-08T04:55:08.008Z,2.26
2022-12-08T04:57:34.547Z,2.29
2022-12-08T05:00:00.965Z,2.31
2022-12-08T05:02:27.382Z,2.37
2022-12-08T05:04:53.697Z,2.40
2022-12-08T05:07:20.034Z,2.41
2022-12-08T05:09:46.326Z,2.49
2022-12-08T05:12:12.661Z,2.50
2022-12-08T05:14:38.962Z,2.58
2022-12-08T05:17:09.527Z,2.58
2022-12-08T05:19:36.340Z,2.57
2022-12-08T05:22:02.697Z,2.57
2022-12-08T05:24:28.991Z,2.57
2022-12-08T05:26:55.278Z,2.56
2022-12-08T05:29:21.601Z,2.60
2022-12-08T05:31:47.895Z,2.60
2022-12-08T05:34:14.377Z,2.57
2022-12-08T05:36:40.689Z,2.56
2022-12-08T05:39:07.009Z,2.61
2022-12-08T05:41:33.312Z,2.58
2022-12-08T05:43:59.598Z,2.57
2022-12-08T05:46:28.308Z,2.58
2022-12-08T05:48:54.670Z,2.58
2022-12-08T05:51:24.002Z,2.56
2022-12-08T05:53:51.860Z,2.56
2022-12-08T05:56:19.118Z,2.59
2022-12-08T05:58:45.953Z,2.66
2022-12-08T06:01:39.095Z,2.69
2022-12-08T06:04:05.513Z,2.72
2022-12-08T06:06:34.271Z,2.64
2022-12-08T06:09:02.925Z,2.70
2022-12-08T06:11:30.916Z,2.67
2022-12-08T06:13:57.698Z,2.66
2022-12-08T06:16:26.147Z,2.66
2022-12-08T06:18:53.077Z,2.68
2022-12-08T06:21:19.689Z,2.68
2022-12-08T06:23:53.689Z,2.67
2022-12-08T06:26:20.855Z,2.66
2022-12-08T06:28:47.776Z,2.63
2022-12-08T06:31:17.291Z,2.62
2022-12-08T06:33:43.960Z,2.68
2022-12-08T06:36:13.117Z,2.66
2022-12-08T06:38:43.302Z,2.63
2022-12-08T06:41:11.297Z,2.65
2022-12-08T06:43:37.765Z,2.69
2022-12-08T06:46:07.151Z,2.70
2022-12-08T06:48:33.459Z,2.81
2022-12-08T06:51:07.795Z,2.79
2022-12-08T06:53:34.083Z,2.86
2022-12-08T06:56:00.517Z,2.86
2022-12-08T06:58:26.957Z,2.98
2022-12-08T07:00:53.671Z,2.95
2022-12-08T07:03:20.505Z,2.92
2022-12-08T07:05:46.810Z,2.93
2022-12-08T07:08:13.172Z,2.92
2022-12-08T07:10:41.881Z,2.90
2022-12-08T07:13:08.170Z,2.87
2022-12-08T07:15:34.527Z,2.96
2022-12-08T07:18:00.978Z,2.91
2022-12-08T07:20:27.537Z,2.90
2022-12-08T07:22:54.319Z,2.88
2022-12-08T07:25:20.636Z,2.92
2022-12-08T07:27:47.498Z,3.00
2022-12-08T07:30:14.925Z,3.02
2022-12-08T07:32:41.230Z,2.99
2022-12-08T07:35:08.213Z,3.03
2022-12-08T07:37:35.699Z,3.04
2022-12-08T07:40:02.469Z,3.05
2022-12-08T07:42:29.118Z,3.12
2022-12-08T07:44:55.538Z,3.20
2022-12-08T07:47:21.829Z,3.30
2022-12-08T07:49:48.246Z,3.30
2022-12-08T07:52:14.554Z,3.42
2022-12-08T07:54:40.896Z,3.41
2022-12-08T07:57:08.937Z,3.43
2022-12-08T07:59:35.603Z,3.47
2022-12-08T08:02:23.046Z,3.50
2022-12-08T08:04:51.541Z,3.54
2022-12-08T08:07:17.903Z,3.63
2022-12-08T08:09:45.552Z,3.61
2022-12-08T08:12:30.360Z,3.73
2022-12-08T08:14:58.261Z,3.77
2022-12-08T08:17:24.742Z,3.87
2022-12-08T08:19:52.270Z,3.95
2022-12-08T08:22:18.761Z,3.99
2022-12-08T08:24:45.451Z,4.08
2022-12-08T08:27:12.516Z,4.17
2022-12-08T08:29:38.837Z,4.19
2022-12-08T08:32:05.729Z,4.30
2022-12-08T08:34:32.017Z,4.36
2022-12-08T08:36:58.377Z,4.32
2022-12-08T08:39:24.839Z,4.29
2022-12-08T08:41:51.217Z,4.40
2022-12-08T08:44:17.526Z,4.53
2022-12-08T08:46:44.455Z,4.61
2022-12-08T08:49:10.840Z,4.70
2022-12-08T08:51:37.231Z,4.81
2022-12-08T08:54:03.897Z,4.84
2022-12-08T08:56:30.522Z,4.91
2022-12-08T08:58:56.969Z,4.90
2022-12-08T09:01:27.345Z,4.95
2022-12-08T09:03:54.762Z,4.94
2022-12-08T09:06:21.377Z,4.98
2022-12-08T09:08:48.541Z,4.98
2022-12-08T09:11:14.977Z,4.93
2022-12-08T09:13:41.369Z,5.00
2022-12-08T09:16:09.133Z,5.01
2022-12-08T09:18:35.572Z,5.10
2022-12-08T09:21:14.888Z,5.02
2022-12-08T09:23:43.668Z,5.05
2022-12-08T09:26:09.987Z,5.18
2022-12-08T09:28:36.641Z,5.26
2022-12-08T09:31:03.029Z,5.34
2022-12-08T09:33:29.532Z,5.44
2022-12-08T09:35:56.127Z,5.44
2022-12-08T09:38:22.469Z,5.53
2022-12-08T09:40:51.630Z,5.65
2022-12-08T09:43:27.094Z,5.64
2022-12-08T09:45:55.079Z,5.63
2022-12-08T09:48:32.958Z,5.65
2022-12-08T09:50:59.307Z,5.68
2022-12-08T09:53:50.588Z,5.86
2022-12-08T09:56:22.616Z,5.95
2022-12-08T09:59:00.116Z,5.90
2022-12-08T10:01:29.575Z,5.88
2022-12-08T10:03:56.181Z,5.87
2022-12-08T10:06:47.789Z,5.95
2022-12-08T10:09:41.632Z,6.17
2022-12-08T10:12:10.874Z,6.25
2022-12-08T10:14:47.489Z,6.28
2022-12-08T10:17:17.776Z,6.44
2022-12-08T10:19:45.534Z,6.23
2022-12-08T10:22:26.830Z,6.40
2022-12-08T10:25:15.450Z,6.39
2022-12-08T10:27:41.763Z,6.46
2022-12-08T10:30:16.862Z,6.46
2022-12-08T10:32:47.687Z,6.25
2022-12-08T10:35:16.621Z,6.24
2022-12-08T10:37:59.381Z,6.24
2022-12-08T10:40:39.107Z,6.25
2022-12-08T10:43:15.551Z,6.31
2022-12-08T10:45:42.824Z,6.34
2022-12-08T10:48:11.919Z,6.38
2022-12-08T10:50:55.382Z,6.34
2022-12-08T10:53:27.358Z,6.44
2022-12-08T10:56:07.320Z,6.45
2022-12-08T10:58:35.556Z,6.54
2022-12-08T11:01:18.664Z,6.58
2022-12-08T11:03:45.056Z,6.48
2022-12-08T11:06:42.236Z,6.37
2022-12-08T11:09:17.632Z,6.35
2022-12-08T11:11:51.382Z,6.37
2022-12-08T11:14:32.214Z,6.29
2022-12-08T11:17:14.958Z,6.29
2022-12-08T11:19:44.571Z,6.38
2022-12-08T11:22:29.474Z,6.47
2022-12-08T11:25:12.036Z,6.62
2022-12-08T11:27:58.913Z,6.60
2022-12-08T11:30:30.297Z,6.65
2022-12-08T11:33:03.685Z,6.72
2022-12-08T11:35:35.191Z,6.74
2022-12-08T11:38:21.287Z,6.85
2022-12-08T11:40:52.167Z,6.94
2022-12-08T11:43:30.632Z,6.89
2022-12-08T11:46:01.712Z,6.93
2022-12-08T11:48:40.808Z,6.95
2022-12-08T11:51:15.183Z,6.96
2022-12-08T11:54:00.708Z,7.07
2022-12-08T11:56:34.616Z,7.20
2022-12-08T11:59:08.530Z,7.19
2022-12-08T12:01:40.913Z,7.11
2022-12-08T12:04:31.249Z,6.87
2022-12-08T12:07:26.530Z,6.63
2022-12-08T12:10:18.006Z,6.39
2022-12-08T12:13:05.381Z,6.24
2022-12-08T12:15:51.319Z,6.13
2022-12-08T12:18:29.880Z,6.15
2022-12-08T12:21:11.179Z,6.14
2022-12-08T12:23:45.781Z,6.28
2022-12-08T12:26:21.727Z,6.40
2022-12-08T12:29:09.681Z,6.46
2022-12-08T12:31:47.165Z,6.65
2022-12-08T12:34:32.779Z,6.78
2022-12-08T12:37:07.253Z,6.83
2022-12-08T12:39:46.833Z,6.96
2022-12-08T12:42:39.523Z,7.10
2022-12-08T12:45:17.931Z,7.07
2022-12-08T12:48:19.905Z,7.08
2022-12-08T12:50:48.501Z,7.11
2022-12-08T12:53:17.964Z,7.18
2022-12-08T12:55:58.735Z,7.30
2022-12-08T12:58:27.900Z,7.37
2022-12-08T13:01:20.088Z,7.44
2022-12-08T13:03:49.772Z,7.51
2022-12-08T13:06:24.319Z,7.72
2022-12-08T13:08:53.878Z,7.90
2022-12-08T13:11:21.529Z,7.84
2022-12-08T13:13:57.971Z,7.72
2022-12-08T13:16:27.170Z,7.61
2022-12-08T13:18:59.419Z,7.41
2022-12-08T13:21:33.980Z,7.54
2022-12-08T13:24:29.609Z,7.78
2022-12-08T13:27:04.790Z,7.62
2022-12-08T13:29:32.869Z,7.40
2022-12-08T13:32:09.601Z,7.58
2022-12-08T13:34:42.153Z,7.74
2022-12-08T13:37:11.499Z,7.84
2022-12-08T13:39:40.855Z,7.78
2022-12-08T13:42:35.740Z,7.91
2022-12-08T13:49:03.320Z,7.93
2022-12-08T13:53:34.168Z,7.60
2022-12-08T13:57:27.146Z,7.66
2022-12-08T13:59:53.471Z,7.41
2022-12-08T14:02:43.796Z,7.27
2022-12-08T14:05:18.993Z,7.12
2022-12-08T14:07:48.650Z,6.97
2022-12-08T14:10:19.934Z,6.87
2022-12-08T14:12:52.138Z,6.95
2022-12-08T14:15:19.674Z,6.85
2022-12-08T14:17:57.094Z,6.83
2022-12-08T14:20:51.735Z,6.74
2022-12-08T14:23:18.565Z,6.68
2022-12-08T14:25:47.995Z,6.65
2022-12-08T14:28:14.403Z,6.53
2022-12-08T14:30:40.817Z,6.50
2022-12-08T14:33:14.371Z,6.43
2022-12-08T14:35:40.795Z,6.25
2022-12-08T14:38:16.235Z,6.18
2022-12-08T14:40:45.090Z,6.08
2022-12-08T14:43:14.282Z,6.07
2022-12-08T14:45:40.547Z,6.03
2022-12-08T14:48:27.173Z,5.96
2022-12-08T14:51:11.856Z,5.86
2022-12-08T14:53:46.238Z,5.71
2022-12-08T14:56:15.552Z,5.67
2022-12-08T14:58:42.002Z,5.50
2022-12-08T15:01:13.350Z,5.38
2022-12-08T15:03:40.237Z,5.40
2022-12-08T15:06:08.235Z,5.19
2022-12-08T15:08:49.942Z,5.15
2022-12-08T15:11:22.032Z,5.14
2022-12-08T15:13:50.541Z,5.05
2022-12-08T15:16:46.073Z,4.95
2022-12-08T15:19:39.021Z,4.83
2022-12-08T15:22:21.161Z,4.75
2022-12-08T15:24:47.525Z,4.72
2022-12-08T15:27:18.916Z,4.66
2022-12-08T15:29:47.224Z,4.64
2022-12-08T15:32:18.593Z,4.67
2022-12-08T15:34:45.129Z,4.64
2022-12-08T15:37:26.379Z,4.66
2022-12-08T15:39:53.163Z,4.70
2022-12-08T15:42:19.438Z,4.72
2022-12-08T15:44:45.808Z,4.80
2022-12-08T15:47:23.525Z,4.78
2022-12-08T15:49:52.434Z,4.80
2022-12-08T15:52:23.223Z,4.72
2022-12-08T15:54:50.154Z,4.64
2022-12-08T15:58:04.112Z,4.60
2022-12-08T16:04:13.895Z,4.40
2022-12-08T16:09:12.213Z,4.22
2022-12-08T16:12:08.531Z,4.16
2022-12-08T16:17:23.294Z,3.88
2022-12-08T16:19:49.625Z,3.83
2022-12-08T16:25:22.297Z,3.73
2022-12-08T16:28:03.172Z,3.64
2022-12-08T16:30:35.108Z,3.59
2022-12-08T16:33:01.709Z,3.52
2022-12-08T16:35:28.228Z,3.54
2022-12-08T16:37:54.588Z,3.51
2022-12-08T16:40:21.040Z,3.46
2022-12-08T16:42:49.666Z,3.42
2022-12-08T16:45:21.505Z,3.53
2022-12-08T16:47:59.146Z,3.62
2022-12-08T16:50:28.996Z,3.60
2022-12-08T16:53:03.817Z,3.55
2022-12-08T16:55:30.648Z,3.55
2022-12-08T16:57:57.045Z,3.47
2022-12-08T17:00:26.097Z,3.46
2022-12-08T17:02:53.650Z,3.49
2022-12-08T17:05:22.138Z,3.49
2022-12-08T17:07:50.547Z,3.55
2022-12-08T17:10:20.782Z,3.49
2022-12-08T17:12:47.219Z,3.49
2022-12-08T17:15:16.697Z,3.44
2022-12-08T17:17:43.142Z,3.38
2022-12-08T17:20:13.473Z,3.44
2022-12-08T17:22:39.768Z,3.51
2022-12-08T17:25:06.760Z,3.45
2022-12-08T17:27:33.408Z,3.49
2022-12-08T17:29:59.842Z,3.42
2022-12-08T17:32:26.853Z,3.35
2022-12-08T17:34:53.480Z,3.38
2022-12-08T17:37:20.027Z,3.32
2022-12-08T17:39:46.399Z,3.29
2022-12-08T17:42:12.699Z,3.28
2022-12-08T17:44:39.049Z,3.35
2022-12-08T17:47:06.748Z,3.31
2022-12-08T17:49:33.935Z,3.25
2022-12-08T17:52:03.241Z,3.23
2022-12-08T17:54:30.341Z,3.22
2022-12-08T17:56:59.746Z,3.24
2022-12-08T17:59:28.214Z,3.23
2022-12-08T18:01:56.426Z,3.18
2022-12-08T18:04:24.425Z,3.18
2022-12-08T18:06:50.759Z,3.13
2022-12-08T18:09:17.714Z,3.19
2022-12-08T18:11:45.996Z,3.19
2022-12-08T18:14:14.095Z,3.11
2022-12-08T18:16:43.073Z,3.20
2022-12-08T18:19:10.541Z,3.14
2022-12-08T18:21:37.619Z,3.13
2022-12-08T18:24:04.766Z,3.17
2022-12-08T18:26:31.430Z,3.14
2022-12-08T18:28:57.951Z,3.11
2022-12-08T18:31:24.861Z,3.11
2022-12-08T18:33:51.933Z,3.15
2022-12-08T18:36:22.484Z,3.16
2022-12-08T18:38:49.458Z,3.17
2022-12-08T18:41:25.941Z,3.18
2022-12-08T18:43:56.912Z,3.16
2022-12-08T18:46:24.470Z,3.16
2022-12-08T18:48:51.985Z,3.07
2022-12-08T18:51:20.960Z,3.17
2022-12-08T18:53:47.576Z,3.10
2022-12-08T18:56:21.254Z,3.04
2022-12-08T18:58:47.583Z,3.08
2022-12-08T19:01:14.744Z,3.02
2022-12-08T19:03:45.651Z,2.98
2022-12-08T19:06:24.837Z,3.03
2022-12-08T19:08:51.204Z,2.96
2022-12-08T19:11:19.607Z,2.98
2022-12-08T19:13:46.447Z,2.94
2022-12-08T19:16:13.492Z,2.90
2022-12-08T19:18:40.404Z,2.87
2022-12-08T19:21:07.672Z,2.86
2022-12-08T19:23:34.387Z,2.83
2022-12-08T19:26:01.770Z,2.81
2022-12-08T19:28:28.590Z,2.82
2022-12-08T19:30:54.894Z,2.80
2022-12-08T19:33:21.390Z,2.77
2022-12-08T19:35:52.422Z,2.80
2022-12-08T19:38:19.282Z,2.79
2022-12-08T19:41:04.041Z,2.87
2022-12-08T19:43:52.923Z,2.85
2022-12-08T19:46:19.612Z,2.78
2022-12-08T19:48:46.149Z,2.75
2022-12-08T19:51:12.501Z,2.81
2022-12-08T19:53:41.840Z,2.77
2022-12-08T19:56:12.350Z,2.75
2022-12-08T19:58:38.668Z,2.68
2022-12-08T20:01:05.127Z,2.74
2022-12-08T20:03:31.510Z,2.79
2022-12-08T20:05:57.929Z,2.74
2022-12-08T20:08:24.339Z,2.64
2022-12-08T20:10:51.066Z,2.56
2022-12-08T20:13:35.738Z,2.58
2022-12-08T20:16:02.080Z,2.56
2022-12-08T20:18:28.698Z,2.49
2022-12-08T20:20:55.108Z,2.47
2022-12-08T20:23:21.404Z,2.45
2022-12-08T20:25:48.171Z,2.45
2022-12-08T20:28:14.588Z,2.46
2022-12-08T20:30:42.152Z,2.47
2022-12-08T20:33:09.981Z,2.46
2022-12-08T20:35:36.306Z,2.45
2022-12-08T20:38:02.598Z,2.48
2022-12-08T20:40:28.982Z,2.46
2022-12-08T20:42:55.310Z,2.47
2022-12-08T20:45:21.651Z,2.45
2022-12-08T20:47:48.047Z,2.47
2022-12-08T20:50:14.481Z,2.45
2022-12-08T20:52:41.005Z,2.41
2022-12-08T20:55:07.980Z,2.41
2022-12-08T20:57:34.468Z,2.41
2022-12-08T21:00:00.816Z,2.43
2022-12-08T21:02:27.698Z,2.42
2022-12-08T21:04:54.499Z,2.41
2022-12-08T21:07:21.298Z,2.40
2022-12-08T21:09:47.908Z,2.41
2022-12-08T21:12:14.509Z,2.43
2022-12-08T21:14:40.976Z,2.48
2022-12-08T21:17:08.056Z,2.46
2022-12-08T21:19:34.735Z,2.44
2022-12-08T21:22:01.260Z,2.40
2022-12-08T21:24:33.519Z,2.40
2022-12-08T21:27:00.573Z,2.38
2022-12-08T21:29:27.105Z,2.37
2022-12-08T21:31:55.583Z,2.30
2022-12-08T21:34:22.162Z,2.31
2022-12-08T21:36:48.473Z,2.30
2022-12-08T21:39:14.936Z,2.30
2022-12-08T21:41:59.867Z,2.33
2022-12-08T21:44:26.183Z,2.39
2022-12-08T21:46:52.633Z,2.38
2022-12-08T21:49:19.224Z,2.37
2022-12-08T21:51:45.648Z,2.35
2022-12-08T21:54:18.271Z,2.33
2022-12-08T21:56:47.265Z,2.36
2022-12-08T21:59:13.824Z,2.40
2022-12-08T22:01:40.388Z,2.44
2022-12-08T22:04:06.972Z,2.44
2022-12-08T22:06:33.383Z,2.51
2022-12-08T22:08:59.849Z,2.44
2022-12-08T22:11:26.387Z,2.42
2022-12-08T22:13:52.753Z,2.37
2022-12-08T22:16:19.387Z,2.34
2022-12-08T22:18:46.073Z,2.33
2022-12-08T22:21:15.507Z,2.33
2022-12-08T22:23:42.240Z,2.45
2022-12-08T22:26:09.447Z,2.47
2022-12-08T22:28:41.108Z,2.49
2022-12-08T22:31:10.061Z,2.45
2022-12-08T22:33:37.056Z,2.43
2022-12-08T22:36:10.234Z,2.59
2022-12-08T22:38:37.396Z,2.61
2022-12-08T22:41:05.162Z,2.61
2022-12-08T22:43:31.524Z,2.53
2022-12-08T22:45:58.043Z,2.35
2022-12-08T22:48:25.100Z,2.43
2022-12-08T22:50:57.816Z,2.36
2022-12-08T22:53:24.265Z,2.38
2022-12-08T22:55:50.540Z,2.34
2022-12-08T22:58:17.096Z,2.39
2022-12-08T23:00:43.679Z,2.34
2022-12-08T23:03:10.039Z,2.29
2022-12-08T23:05:38.458Z,2.24
2022-12-08T23:08:07.701Z,2.22
2022-12-08T23:10:34.960Z,2.16
2022-12-08T23:13:03.909Z,2.27
2022-12-08T23:15:30.753Z,2.37
2022-12-08T23:17:57.491Z,2.34
2022-12-08T23:20:24.083Z,2.33
2022-12-08T23:22:50.628Z,2.38
2022-12-08T23:25:18.500Z,2.41
2022-12-08T23:27:45.582Z,2.34
2022-12-08T23:30:12.675Z,2.40
2022-12-08T23:32:39.257Z,2.35
2022-12-08T23:35:06.568Z,2.31
2022-12-08T23:37:33.044Z,2.25
2022-12-08T23:39:59.480Z,2.31
2022-12-08T23:42:25.815Z,2.39
2022-12-08T23:44:52.431Z,2.45
2022-12-08T23:47:18.834Z,2.57
2022-12-08T23:49:45.679Z,2.51
2022-12-08T23:52:13.788Z,2.47
2022-12-08T23:54:40.489Z,2.40
2022-12-08T23:57:07.338Z,2.33
2022-12-08T23:59:33.814Z,2.39
